createdAt,value
2023-05-24T00:01:02.591Z,53.55
2023-05-24T00:03:31.057Z,51.83
2023-05-24T00:06:00.726Z,52.22
2023-05-24T00:08:28.856Z,52.25
2023-05-24T00:10:57.131Z,51.17
2023-05-24T00:13:25.184Z,53.03
2023-05-24T00:15:53.618Z,51.90
2023-05-24T00:18:21.670Z,51.33
2023-05-24T00:20:50.194Z,52.40
2023-05-24T00:23:19.684Z,54.83
2023-05-24T00:25:48.112Z,54.47
2023-05-24T00:28:16.430Z,56.17
2023-05-24T00:30:44.845Z,55.42
2023-05-24T00:33:13.116Z,54.42
2023-05-24T00:35:41.347Z,53.17
2023-05-24T00:38:09.711Z,54.72
2023-05-24T00:40:39.168Z,54.05
2023-05-24T00:43:07.130Z,54.95
2023-05-24T00:45:35.298Z,55.00
2023-05-24T00:48:04.197Z,56.25
2023-05-24T00:50:32.522Z,53.83
2023-05-24T00:53:03.605Z,55.10
2023-05-24T00:55:32.061Z,55.25
2023-05-24T00:58:02.310Z,54.13
2023-05-24T01:00:31.643Z,53.28
2023-05-24T01:03:01.258Z,54.00
2023-05-24T01:05:29.414Z,52.67
2023-05-24T01:08:09.939Z,53.03
2023-05-24T01:10:52.348Z,53.58
2023-05-24T01:13:28.115Z,52.85
2023-05-24T01:16:02.770Z,52.42
2023-05-24T01:18:35.046Z,53.75
2023-05-24T01:21:17.892Z,51.55
2023-05-24T01:23:51.447Z,52.80
2023-05-24T01:26:27.257Z,51.95
2023-05-24T01:28:57.415Z,52.35
2023-05-24T01:31:25.660Z,51.35
2023-05-24T01:33:53.861Z,51.42
2023-05-24T01:36:22.345Z,51.53
2023-05-24T01:38:51.995Z,50.53
2023-05-24T01:41:41.350Z,52.78
2023-05-24T01:44:20.149Z,50.63
2023-05-24T01:46:52.345Z,50.65
2023-05-24T01:49:24.439Z,51.88
2023-05-24T01:51:57.839Z,50.58
2023-05-24T01:54:28.001Z,50.75
2023-05-24T01:56:58.678Z,50.38
2023-05-24T01:59:31.193Z,49.75
2023-05-24T02:01:59.409Z,50.30
2023-05-24T02:04:28.109Z,50.97
2023-05-24T02:06:56.163Z,51.65
2023-05-24T02:09:24.663Z,50.38
2023-05-24T02:11:52.713Z,50.20
2023-05-24T02:14:20.986Z,50.05
2023-05-24T02:16:50.933Z,51.03
2023-05-24T02:19:19.179Z,49.53
2023-05-24T02:21:47.225Z,51.97
2023-05-24T02:24:15.300Z,51.17
2023-05-24T02:26:43.511Z,49.75
2023-05-24T02:29:11.600Z,50.85
2023-05-24T02:31:39.762Z,50.85
2023-05-24T02:34:09.382Z,51.05
2023-05-24T02:36:37.581Z,49.67
2023-05-24T02:39:06.229Z,51.45
2023-05-24T02:41:34.330Z,50.67
2023-05-24T02:44:02.337Z,50.10
2023-05-24T02:46:30.506Z,49.67
2023-05-24T02:48:58.698Z,51.40
2023-05-24T02:51:28.159Z,51.00
2023-05-24T02:53:56.268Z,52.78
2023-05-24T02:56:24.326Z,51.63
2023-05-24T02:58:54.343Z,49.95
2023-05-24T03:01:22.863Z,51.42
2023-05-24T03:03:51.102Z,50.58
2023-05-24T03:06:19.199Z,51.00
2023-05-24T03:08:49.789Z,49.88
2023-05-24T03:11:22.133Z,50.60
2023-05-24T03:13:50.638Z,52.30
2023-05-24T03:16:19.979Z,50.25
2023-05-24T03:18:50.629Z,51.33
2023-05-24T03:21:20.976Z,50.33
2023-05-24T03:23:51.049Z,55.40
2023-05-24T03:26:20.693Z,50.58
2023-05-24T03:28:50.720Z,50.25
2023-05-24T03:31:20.942Z,50.35
2023-05-24T03:33:49.075Z,51.10
2023-05-24T03:36:17.038Z,50.20
2023-05-24T03:38:45.296Z,51.00
2023-05-24T03:41:14.679Z,52.33
2023-05-24T03:43:42.817Z,50.85
2023-05-24T03:46:11.174Z,51.20
2023-05-24T03:48:39.408Z,51.33
2023-05-24T03:51:09.304Z,50.78
2023-05-24T03:53:37.386Z,48.88
2023-05-24T03:56:05.632Z,49.80
2023-05-24T03:58:35.997Z,49.90
2023-05-24T04:01:04.095Z,51.08
2023-05-24T04:03:34.278Z,49.53
2023-05-24T04:06:02.683Z,49.65
2023-05-24T04:08:31.514Z,49.70
2023-05-24T04:11:00.003Z,48.25
2023-05-24T04:13:28.486Z,47.65
2023-05-24T04:15:58.010Z,47.08
2023-05-24T04:18:26.258Z,47.08
2023-05-24T04:20:54.483Z,46.65
2023-05-24T04:23:22.600Z,45.70
2023-05-24T04:25:51.122Z,44.72
2023-05-24T04:28:22.219Z,46.92
2023-05-24T04:30:50.363Z,45.55
2023-05-24T04:33:20.543Z,46.63
2023-05-24T04:35:48.524Z,45.88
2023-05-24T04:38:16.965Z,44.80
2023-05-24T04:40:45.488Z,44.67
2023-05-24T04:43:14.680Z,43.20
2023-05-24T04:45:43.049Z,44.35
2023-05-24T04:48:11.304Z,44.70
2023-05-24T04:50:41.200Z,44.10
2023-05-24T04:53:09.593Z,43.97
2023-05-24T04:55:37.672Z,43.67
2023-05-24T04:58:05.757Z,46.15
2023-05-24T05:00:33.956Z,46.70
2023-05-24T05:03:03.928Z,45.90
2023-05-24T05:05:32.205Z,45.97
2023-05-24T05:08:02.134Z,45.38
2023-05-24T05:10:30.474Z,45.33
2023-05-24T05:12:58.773Z,44.58
2023-05-24T05:15:26.841Z,45.40
2023-05-24T05:17:55.415Z,46.22
2023-05-24T05:20:24.195Z,45.25
2023-05-24T05:22:52.167Z,44.85
2023-05-24T05:25:22.160Z,44.30
2023-05-24T05:27:50.558Z,44.30
2023-05-24T05:30:18.701Z,43.85
2023-05-24T05:32:47.450Z,44.13
2023-05-24T05:35:15.640Z,43.90
2023-05-24T05:37:43.758Z,44.35
2023-05-24T05:40:12.844Z,44.97
2023-05-24T05:42:42.485Z,44.45
2023-05-24T05:45:11.141Z,45.55
2023-05-24T05:47:39.669Z,44.78
2023-05-24T05:50:08.864Z,44.53
2023-05-24T05:52:37.288Z,46.08
2023-05-24T05:55:06.246Z,44.70
2023-05-24T05:57:35.593Z,45.35
2023-05-24T06:00:05.892Z,45.03
2023-05-24T06:02:34.400Z,45.55
2023-05-24T06:05:03.278Z,45.78
2023-05-24T06:07:32.112Z,47.42
2023-05-24T06:10:00.191Z,46.95
2023-05-24T06:12:28.396Z,45.83
2023-05-24T06:14:57.615Z,47.60
2023-05-24T06:17:28.054Z,47.25
2023-05-24T06:19:56.264Z,46.17
2023-05-24T06:22:24.529Z,46.72
2023-05-24T06:24:52.849Z,47.88
2023-05-24T06:27:21.399Z,46.30
2023-05-24T06:29:49.577Z,49.25
2023-05-24T06:32:18.227Z,48.08
2023-05-24T06:34:47.850Z,47.63
2023-05-24T06:37:16.212Z,49.25
2023-05-24T06:39:44.256Z,46.65
2023-05-24T06:42:12.468Z,48.25
2023-05-24T06:44:40.490Z,48.08
2023-05-24T06:47:09.388Z,45.17
2023-05-24T06:49:38.393Z,47.38
2023-05-24T06:52:08.992Z,46.83
2023-05-24T06:54:37.750Z,46.08
2023-05-24T06:57:06.433Z,45.60
2023-05-24T06:59:34.586Z,45.15
2023-05-24T07:02:03.938Z,46.63
2023-05-24T07:04:32.408Z,48.00
2023-05-24T07:07:00.621Z,47.40
2023-05-24T07:09:30.174Z,46.55
2023-05-24T07:11:58.448Z,47.33
2023-05-24T07:14:27.518Z,46.88
2023-05-24T07:16:57.570Z,47.78
2023-05-24T07:19:29.898Z,48.30
2023-05-24T07:21:58.134Z,49.28
2023-05-24T07:24:26.333Z,46.85
2023-05-24T07:26:56.945Z,47.33
2023-05-24T07:29:26.311Z,47.85
2023-05-24T07:31:56.795Z,49.15
2023-05-24T07:34:27.629Z,46.20
2023-05-24T07:36:55.747Z,46.55
2023-05-24T07:39:25.243Z,47.20
2023-05-24T07:41:54.942Z,46.78
2023-05-24T07:44:26.219Z,45.00
2023-05-24T07:46:55.779Z,44.33
2023-05-24T07:49:24.165Z,44.00
2023-05-24T07:51:53.109Z,45.90
2023-05-24T07:54:21.548Z,44.80
2023-05-24T07:56:50.451Z,45.35
2023-05-24T07:59:20.140Z,45.80
2023-05-24T08:01:48.368Z,42.30
2023-05-24T08:04:16.912Z,43.30
2023-05-24T08:06:48.008Z,44.58
2023-05-24T08:09:16.771Z,47.22
2023-05-24T08:11:44.954Z,47.05
2023-05-24T08:14:13.247Z,35.67
2023-05-24T08:16:43.024Z,28.27
2023-05-24T08:19:11.082Z,19.13
2023-05-24T08:21:39.460Z,16.05
2023-05-24T08:24:09.424Z,17.50
2023-05-24T08:26:38.188Z,14.30
2023-05-24T08:29:06.330Z,15.23
2023-05-24T08:31:35.593Z,11.88
2023-05-24T08:34:06.660Z,13.48
2023-05-24T08:36:39.013Z,13.05
2023-05-24T08:39:07.324Z,11.02
2023-05-24T08:41:37.964Z,14.68
2023-05-24T08:44:07.895Z,12.48
2023-05-24T08:46:37.159Z,10.85
2023-05-24T08:49:07.648Z,12.23
2023-05-24T08:51:38.719Z,9.82
2023-05-24T08:54:07.807Z,9.82
2023-05-24T08:56:36.411Z,14.57
2023-05-24T08:59:04.467Z,12.77
2023-05-24T09:01:34.775Z,12.95
2023-05-24T09:04:07.396Z,14.05
2023-05-24T09:06:36.170Z,16.58
2023-05-24T09:09:05.930Z,13.02
2023-05-24T09:11:36.841Z,10.27
2023-05-24T09:14:06.203Z,12.43
2023-05-24T09:16:34.438Z,12.98
2023-05-24T09:19:03.541Z,11.38
2023-05-24T09:21:34.001Z,8.90
2023-05-24T09:24:02.331Z,13.13
2023-05-24T09:26:31.142Z,13.88
2023-05-24T09:28:59.330Z,13.10
2023-05-24T09:31:35.038Z,14.98
2023-05-24T09:34:03.203Z,9.10
2023-05-24T09:36:34.896Z,11.30
2023-05-24T09:39:09.603Z,11.57
2023-05-24T09:41:37.782Z,11.02
2023-05-24T09:44:11.829Z,10.80
2023-05-24T09:46:39.993Z,11.10
2023-05-24T09:49:08.611Z,11.70
2023-05-24T09:51:39.910Z,9.90
2023-05-24T09:54:08.311Z,9.57
2023-05-24T09:56:41.578Z,10.82
2023-05-24T09:59:10.377Z,11.13
2023-05-24T10:01:38.942Z,15.20
2023-05-24T10:04:10.014Z,11.95
2023-05-24T10:06:43.151Z,10.23
2023-05-24T10:09:14.390Z,12.30
2023-05-24T10:11:43.342Z,10.55
2023-05-24T10:14:11.963Z,10.98
2023-05-24T10:16:40.451Z,8.95
2023-05-24T10:19:08.732Z,13.95
2023-05-24T10:21:42.910Z,12.52
2023-05-24T10:24:12.477Z,10.23
2023-05-24T10:26:42.613Z,10.48
2023-05-24T10:29:17.958Z,10.85
2023-05-24T10:31:47.275Z,9.68
2023-05-24T10:34:15.848Z,10.40
2023-05-24T10:36:46.035Z,12.63
2023-05-24T10:39:14.045Z,8.98
2023-05-24T10:41:43.413Z,9.85
2023-05-24T10:44:14.974Z,9.50
2023-05-24T10:47:12.238Z,9.75
2023-05-24T10:49:49.210Z,7.63
2023-05-24T10:52:18.974Z,10.15
2023-05-24T10:55:08.151Z,8.65
2023-05-24T10:57:36.981Z,6.78
2023-05-24T11:03:04.283Z,11.85
2023-05-24T11:05:37.029Z,9.70
2023-05-24T11:08:09.559Z,11.90
2023-05-24T11:10:38.470Z,11.15
2023-05-24T11:13:09.694Z,12.02
2023-05-24T11:15:38.334Z,12.02
2023-05-24T11:18:16.400Z,11.18
2023-05-24T11:20:45.955Z,11.27
2023-05-24T11:23:16.496Z,11.30
2023-05-24T11:25:44.824Z,8.95
2023-05-24T11:28:13.796Z,11.40
2023-05-24T11:30:42.285Z,12.85
2023-05-24T11:33:18.811Z,9.10
2023-05-24T11:35:47.265Z,7.40
2023-05-24T11:38:17.882Z,11.77
2023-05-24T11:40:47.266Z,8.27
2023-05-24T11:43:17.011Z,10.02
2023-05-24T11:45:46.866Z,8.70
2023-05-24T11:48:15.250Z,14.05
2023-05-24T11:50:49.854Z,9.05
2023-05-24T11:53:22.644Z,10.13
2023-05-24T11:55:51.502Z,9.50
2023-05-24T11:58:23.995Z,12.50
2023-05-24T12:00:52.856Z,10.07
2023-05-24T12:03:22.014Z,10.82
2023-05-24T12:05:51.434Z,8.38
2023-05-24T12:08:21.253Z,9.35
2023-05-24T12:10:51.743Z,10.60
2023-05-24T12:13:24.588Z,10.98
2023-05-24T12:15:55.828Z,10.38
2023-05-24T12:18:26.396Z,11.02
2023-05-24T12:20:54.610Z,11.82
2023-05-24T12:23:27.794Z,10.52
2023-05-24T12:25:59.916Z,12.05
2023-05-24T12:28:28.674Z,12.75
2023-05-24T12:30:57.198Z,12.50
2023-05-24T12:33:25.977Z,12.02
2023-05-24T12:35:56.456Z,9.82
2023-05-24T12:38:29.443Z,13.75
2023-05-24T12:43:30.601Z,11.48
2023-05-24T12:45:58.746Z,10.20
2023-05-24T12:48:26.874Z,10.05
2023-05-24T12:50:58.048Z,11.68
2023-05-24T12:53:27.879Z,12.40
2023-05-24T12:56:03.510Z,11.30
2023-05-24T12:58:37.779Z,12.13
2023-05-24T13:01:13.918Z,11.20
2023-05-24T13:03:48.018Z,11.10
2023-05-24T13:06:16.491Z,15.40
2023-05-24T13:08:48.080Z,12.30
2023-05-24T13:11:16.600Z,10.25
2023-05-24T13:13:47.600Z,10.77
2023-05-24T13:16:15.921Z,14.75
2023-05-24T13:18:46.357Z,11.13
2023-05-24T13:21:14.807Z,12.73
2023-05-24T13:23:47.431Z,10.27
2023-05-24T13:26:17.891Z,11.70
2023-05-24T13:29:04.858Z,13.50
2023-05-24T13:31:35.106Z,9.15
2023-05-24T13:34:03.647Z,15.35
2023-05-24T13:36:31.759Z,13.93
2023-05-24T13:39:14.055Z,9.85
2023-05-24T13:41:45.440Z,14.60
2023-05-24T13:44:14.027Z,9.57
2023-05-24T13:46:42.587Z,8.73
2023-05-24T13:49:11.992Z,10.45
2023-05-24T13:51:42.413Z,15.10
2023-05-24T13:54:12.714Z,11.85
2023-05-24T13:56:44.457Z,15.40
2023-05-24T13:59:17.316Z,10.90
2023-05-24T14:01:46.644Z,13.30
2023-05-24T14:04:16.986Z,12.27
2023-05-24T14:06:45.315Z,11.75
2023-05-24T14:09:14.420Z,10.38
2023-05-24T14:11:42.812Z,14.00
2023-05-24T14:16:51.836Z,9.85
2023-05-24T14:19:20.153Z,7.85
2023-05-24T14:21:48.728Z,15.75
2023-05-24T14:24:21.062Z,10.65
2023-05-24T14:26:49.423Z,12.38
2023-05-24T14:29:20.545Z,9.00
2023-05-24T14:31:52.826Z,13.52
2023-05-24T14:34:24.221Z,11.63
2023-05-24T14:36:52.562Z,12.35
2023-05-24T14:39:20.896Z,9.43
2023-05-24T14:41:49.092Z,11.70
2023-05-24T14:44:17.970Z,10.45
2023-05-24T14:46:49.612Z,11.25
2023-05-24T14:49:18.362Z,12.68
2023-05-24T14:51:49.422Z,8.90
2023-05-24T14:54:17.995Z,12.07
2023-05-24T14:56:49.055Z,12.35
2023-05-24T14:59:17.201Z,12.77
2023-05-24T15:01:45.415Z,9.82
2023-05-24T15:04:15.154Z,12.07
2023-05-24T15:06:43.460Z,11.45
2023-05-24T15:09:13.135Z,14.68
2023-05-24T15:11:43.502Z,15.18
2023-05-24T15:14:11.712Z,8.77
2023-05-24T15:16:40.053Z,6.65
2023-05-24T15:19:09.218Z,9.93
2023-05-24T15:21:38.913Z,11.30
2023-05-24T15:24:07.781Z,12.50
2023-05-24T15:26:39.242Z,13.40
2023-05-24T15:29:07.535Z,10.43
2023-05-24T15:31:36.485Z,11.48
2023-05-24T15:34:05.582Z,11.93
2023-05-24T15:36:36.768Z,14.82
2023-05-24T15:39:06.615Z,10.25
2023-05-24T15:41:35.302Z,7.22
2023-05-24T15:44:08.605Z,10.82
2023-05-24T15:46:37.841Z,9.90
2023-05-24T15:49:06.280Z,13.63
2023-05-24T15:52:03.023Z,14.38
2023-05-24T15:54:24.079Z,10.77
2023-05-24T15:56:52.457Z,11.95
2023-05-24T15:59:23.585Z,8.43
2023-05-24T16:01:51.990Z,11.18
2023-05-24T16:04:24.638Z,10.10
2023-05-24T16:06:56.522Z,10.30
2023-05-24T16:09:32.823Z,12.80
2023-05-24T16:12:11.054Z,10.98
2023-05-24T16:14:39.363Z,10.15
2023-05-24T16:17:10.529Z,11.25
2023-05-24T16:19:38.636Z,9.52
2023-05-24T16:22:07.973Z,7.88
2023-05-24T16:24:37.681Z,11.93
2023-05-24T16:27:06.873Z,11.43
2023-05-24T16:29:37.040Z,12.27
2023-05-24T16:32:05.846Z,14.15
2023-05-24T16:34:44.831Z,12.40
2023-05-24T16:37:23.146Z,15.35
2023-05-24T16:39:52.889Z,11.20
2023-05-24T16:42:21.361Z,8.70
2023-05-24T16:44:49.672Z,10.48
2023-05-24T16:47:18.089Z,10.40
2023-05-24T16:49:46.408Z,10.07
2023-05-24T16:52:14.553Z,10.60
2023-05-24T16:54:45.963Z,7.95
2023-05-24T16:57:15.892Z,13.23
2023-05-24T16:59:45.543Z,11.25
2023-05-24T17:02:14.181Z,12.70
2023-05-24T17:04:42.665Z,11.65
2023-05-24T17:07:10.865Z,11.38
2023-05-24T17:09:39.397Z,11.90
2023-05-24T17:12:07.866Z,9.77
2023-05-24T17:14:38.291Z,11.52
2023-05-24T17:17:08.966Z,9.55
2023-05-24T17:19:42.025Z,11.75
2023-05-24T17:22:10.279Z,12.00
2023-05-24T17:24:41.793Z,14.43
2023-05-24T17:27:10.257Z,8.50
2023-05-24T17:29:46.907Z,10.77
2023-05-24T17:32:24.436Z,9.57
2023-05-24T17:34:52.830Z,14.02
2023-05-24T17:37:21.103Z,10.40
2023-05-24T17:39:52.346Z,13.20
2023-05-24T17:42:20.525Z,11.43
2023-05-24T17:44:50.148Z,11.55
2023-05-24T17:47:18.464Z,11.75
2023-05-24T17:49:46.607Z,10.77
2023-05-24T17:52:15.142Z,11.75
2023-05-24T17:54:43.334Z,11.80
2023-05-24T17:57:11.517Z,11.60
2023-05-24T17:59:42.628Z,10.07
2023-05-24T18:02:12.367Z,10.45
2023-05-24T18:04:40.980Z,11.45
2023-05-24T18:07:09.362Z,14.48
2023-05-24T18:09:38.901Z,13.80
2023-05-24T18:12:09.636Z,16.73
2023-05-24T18:14:38.191Z,13.10
2023-05-24T18:17:06.427Z,10.73
2023-05-24T18:19:36.520Z,17.15
2023-05-24T18:22:05.061Z,13.13
2023-05-24T18:24:36.169Z,8.20
2023-05-24T18:27:05.199Z,9.95
2023-05-24T18:29:34.897Z,14.15
2023-05-24T18:32:03.547Z,16.95
2023-05-24T18:34:32.251Z,13.07
2023-05-24T18:37:02.888Z,14.60
2023-05-24T18:39:31.587Z,14.85
2023-05-24T18:41:59.898Z,11.98
2023-05-24T18:44:28.065Z,12.27
2023-05-24T18:46:59.510Z,8.73
2023-05-24T18:49:27.817Z,12.07
2023-05-24T18:51:56.249Z,11.52
2023-05-24T18:54:25.772Z,10.25
2023-05-24T18:56:54.095Z,12.93
2023-05-24T18:59:29.005Z,12.45
2023-05-24T19:01:57.245Z,10.38
2023-05-24T19:04:25.875Z,11.57
2023-05-24T19:06:54.473Z,12.52
2023-05-24T19:09:22.686Z,12.32
2023-05-24T19:11:52.546Z,12.32
2023-05-24T19:14:22.269Z,10.00
2023-05-24T19:16:50.435Z,11.73
2023-05-24T19:19:19.764Z,15.63
2023-05-24T19:21:48.093Z,8.65
2023-05-24T19:24:16.387Z,11.65
2023-05-24T19:26:44.504Z,11.60
2023-05-24T19:29:14.331Z,11.63
2023-05-24T19:31:42.425Z,11.27
2023-05-24T19:34:10.842Z,9.43
2023-05-24T19:36:39.128Z,11.82
2023-05-24T19:39:07.581Z,10.93
2023-05-24T19:41:39.171Z,9.75
2023-05-24T19:44:07.433Z,13.15
2023-05-24T19:46:38.200Z,13.85
2023-05-24T19:49:06.544Z,13.13
2023-05-24T19:51:35.023Z,12.32
2023-05-24T19:54:03.292Z,11.85
2023-05-24T19:56:32.114Z,10.98
2023-05-24T19:59:01.616Z,10.63
2023-05-24T20:01:37.097Z,11.52
2023-05-24T20:04:14.026Z,15.48
2023-05-24T20:06:44.423Z,11.57
2023-05-24T20:09:12.877Z,14.07
2023-05-24T20:11:41.258Z,9.55
2023-05-24T20:14:09.562Z,13.05
2023-05-24T20:16:37.736Z,12.13
2023-05-24T20:19:07.671Z,12.15
2023-05-24T20:21:36.721Z,12.38
2023-05-24T20:24:04.920Z,14.15
2023-05-24T20:26:35.051Z,8.80
2023-05-24T20:29:03.974Z,9.48
2023-05-24T20:31:32.158Z,13.45
2023-05-24T20:34:00.296Z,13.43
2023-05-24T20:36:29.839Z,16.25
2023-05-24T20:38:58.253Z,17.52
2023-05-24T20:41:26.631Z,17.95
2023-05-24T20:43:55.161Z,23.35
2023-05-24T20:46:23.675Z,26.20
2023-05-24T20:48:51.993Z,23.77
2023-05-24T20:51:20.344Z,23.08
2023-05-24T20:53:52.160Z,25.77
2023-05-24T20:56:21.425Z,25.20
2023-05-24T20:58:53.012Z,24.05
2023-05-24T21:01:21.842Z,23.88
2023-05-24T21:03:50.083Z,23.35
2023-05-24T21:06:20.710Z,25.00
2023-05-24T21:08:51.116Z,30.58
2023-05-24T21:11:19.194Z,38.00
2023-05-24T21:13:47.338Z,43.20
2023-05-24T21:16:15.498Z,45.95
2023-05-24T21:18:43.470Z,47.33
2023-05-24T21:21:13.236Z,49.17
2023-05-24T21:23:41.334Z,48.28
2023-05-24T21:26:11.108Z,48.17
2023-05-24T21:28:39.326Z,47.28
2023-05-24T21:31:08.315Z,46.90
2023-05-24T21:33:37.626Z,45.22
2023-05-24T21:36:06.018Z,42.15
2023-05-24T21:38:34.259Z,40.90
2023-05-24T21:41:02.321Z,44.10
2023-05-24T21:43:31.818Z,46.40
2023-05-24T21:45:59.904Z,44.30
2023-05-24T21:48:27.902Z,46.80
2023-05-24T21:50:55.969Z,48.85
2023-05-24T21:53:24.124Z,49.17
2023-05-24T21:55:52.234Z,48.85
2023-05-24T21:58:20.303Z,46.83
2023-05-24T22:00:51.004Z,43.60
2023-05-24T22:03:19.148Z,35.33
2023-05-24T22:05:47.495Z,31.83
2023-05-24T22:08:15.605Z,34.80
2023-05-24T22:10:43.654Z,36.97
2023-05-24T22:13:11.608Z,39.40
2023-05-24T22:15:39.998Z,41.05
2023-05-24T22:18:09.784Z,42.80
2023-05-24T22:20:38.165Z,43.00
2023-05-24T22:23:06.771Z,48.63
2023-05-24T22:25:35.191Z,46.88
2023-05-24T22:28:03.260Z,48.72
2023-05-24T22:30:32.158Z,46.55
2023-05-24T22:33:00.212Z,47.05
2023-05-24T22:35:29.647Z,46.47
2023-05-24T22:37:58.214Z,46.90
2023-05-24T22:40:26.881Z,48.92
2023-05-24T22:42:54.898Z,50.70
2023-05-24T22:45:23.076Z,50.13
2023-05-24T22:47:51.104Z,53.53
2023-05-24T22:50:19.230Z,52.00
2023-05-24T22:52:49.156Z,51.42
2023-05-24T22:55:17.386Z,52.70
2023-05-24T22:57:45.394Z,53.78
2023-05-24T23:00:15.594Z,55.53
2023-05-24T23:02:44.204Z,56.95
2023-05-24T23:05:12.376Z,57.25
2023-05-24T23:07:40.492Z,57.97
2023-05-24T23:10:11.156Z,59.20
2023-05-24T23:12:42.413Z,58.75
2023-05-24T23:15:11.664Z,57.55
2023-05-24T23:17:40.149Z,57.72
2023-05-24T23:20:10.605Z,58.25
2023-05-24T23:22:39.010Z,56.22
2023-05-24T23:25:10.080Z,56.67
2023-05-24T23:27:38.277Z,55.50
2023-05-24T23:30:07.901Z,59.33
2023-05-24T23:32:36.465Z,57.05
2023-05-24T23:35:04.763Z,59.15
2023-05-24T23:37:32.946Z,58.00
2023-05-24T23:40:06.332Z,57.17
2023-05-24T23:42:36.563Z,57.08
2023-05-24T23:45:05.068Z,57.28
2023-05-24T23:47:33.177Z,58.53
2023-05-24T23:50:01.255Z,56.78
2023-05-24T23:52:29.301Z,56.13
2023-05-24T23:54:57.342Z,58.65
2023-05-24T23:57:27.067Z,57.90
2023-05-24T23:59:56.694Z,58.95
